createdAt,value
2018-05-17T00:01:04.046Z,9.03
2018-05-17T00:03:33.109Z,8.20
2018-05-17T00:06:01.742Z,8.23
2018-05-17T00:08:30.037Z,8.53
2018-05-17T00:10:58.320Z,8.73
2018-05-17T00:13:26.649Z,8.13
2018-05-17T00:15:54.934Z,8.53
2018-05-17T00:18:23.252Z,8.23
2018-05-17T00:20:51.565Z,8.00
2018-05-17T00:23:19.861Z,7.60
2018-05-17T00:25:48.157Z,8.10
2018-05-17T00:28:16.490Z,6.17
2018-05-17T00:30:44.774Z,6.37
2018-05-17T00:33:13.066Z,6.40
2018-05-17T00:35:41.388Z,6.77
2018-05-17T00:38:09.678Z,5.30
2018-05-17T00:40:37.963Z,6.43
2018-05-17T00:43:06.297Z,4.73
2018-05-17T00:45:34.586Z,6.00
2018-05-17T00:48:03.644Z,5.20
2018-05-17T00:50:32.372Z,5.67
2018-05-17T00:53:12.634Z,6.67
2018-05-17T00:55:41.149Z,6.10
2018-05-17T00:58:09.458Z,6.27
2018-05-17T01:00:38.520Z,6.93
2018-05-17T01:03:06.853Z,7.13
2018-05-17T01:05:35.930Z,6.33
2018-05-17T01:08:04.229Z,6.43
2018-05-17T01:10:32.557Z,6.40
2018-05-17T01:13:00.853Z,7.27
2018-05-17T01:15:29.346Z,6.50
2018-05-17T01:17:58.393Z,6.20
2018-05-17T01:20:26.685Z,6.73
2018-05-17T01:22:55.393Z,5.80
2018-05-17T01:25:23.685Z,6.67
2018-05-17T01:27:51.973Z,6.40
2018-05-17T01:30:20.465Z,7.77
2018-05-17T01:32:48.754Z,6.80
2018-05-17T01:35:17.046Z,6.10
2018-05-17T01:37:57.848Z,7.10
2018-05-17T01:40:26.933Z,6.33
2018-05-17T01:42:55.410Z,6.90
2018-05-17T01:45:23.709Z,7.47
2018-05-17T01:47:52.007Z,7.23
2018-05-17T01:50:20.333Z,7.63
2018-05-17T01:52:48.690Z,6.80
2018-05-17T01:55:17.011Z,6.90
2018-05-17T01:57:46.077Z,7.83
2018-05-17T02:00:14.406Z,5.90
2018-05-17T02:02:42.740Z,6.27
2018-05-17T02:05:11.158Z,8.03
2018-05-17T02:07:39.566Z,6.10
2018-05-17T02:10:08.654Z,7.37
2018-05-17T02:12:36.951Z,6.57
2018-05-17T02:15:05.335Z,6.63
2018-05-17T02:17:33.633Z,7.83
2018-05-17T02:20:02.837Z,6.83
2018-05-17T02:22:31.126Z,6.20
2018-05-17T02:24:59.418Z,6.37
2018-05-17T02:27:27.749Z,7.47
2018-05-17T02:29:56.046Z,6.47
2018-05-17T02:32:24.343Z,7.63
2018-05-17T02:34:52.674Z,7.17
2018-05-17T02:37:20.957Z,7.30
2018-05-17T02:39:49.295Z,7.50
2018-05-17T02:42:17.588Z,6.93
2018-05-17T02:44:45.878Z,6.83
2018-05-17T02:47:14.210Z,6.60
2018-05-17T02:49:42.497Z,8.47
2018-05-17T02:52:10.804Z,7.77
2018-05-17T02:54:40.697Z,7.73
2018-05-17T02:57:08.995Z,6.77
2018-05-17T02:59:37.286Z,7.10
2018-05-17T03:02:05.998Z,6.70
2018-05-17T03:04:34.289Z,5.77
2018-05-17T03:07:02.588Z,6.70
2018-05-17T03:09:30.914Z,7.27
2018-05-17T03:11:59.197Z,6.97
2018-05-17T03:14:27.530Z,7.90
2018-05-17T03:16:55.816Z,7.53
2018-05-17T03:19:24.132Z,7.87
2018-05-17T03:21:52.416Z,7.93
2018-05-17T03:24:20.714Z,8.07
2018-05-17T03:26:49.201Z,6.87
2018-05-17T03:29:17.490Z,7.00
2018-05-17T03:31:45.777Z,7.40
2018-05-17T03:34:14.109Z,7.47
2018-05-17T03:36:42.473Z,7.93
2018-05-17T03:39:11.591Z,8.27
2018-05-17T03:41:40.646Z,8.67
2018-05-17T03:44:08.974Z,8.23
2018-05-17T03:46:37.272Z,9.00
2018-05-17T03:49:05.589Z,8.00
2018-05-17T03:51:33.880Z,8.30
2018-05-17T03:54:02.200Z,9.77
2018-05-17T03:56:30.497Z,10.00
2018-05-17T03:58:59.056Z,9.67
2018-05-17T04:01:40.144Z,10.60
2018-05-17T04:04:20.488Z,11.13
2018-05-17T04:06:49.550Z,10.80
2018-05-17T04:09:17.846Z,10.23
2018-05-17T04:11:46.182Z,12.30
2018-05-17T04:14:15.247Z,11.87
2018-05-17T04:16:43.866Z,11.77
2018-05-17T04:19:12.158Z,11.90
2018-05-17T04:21:40.468Z,12.00
2018-05-17T04:24:09.578Z,12.70
2018-05-17T04:26:38.670Z,12.23
2018-05-17T04:29:07.788Z,12.40
2018-05-17T04:31:36.078Z,12.20
2018-05-17T04:34:05.140Z,14.73
2018-05-17T04:36:33.861Z,13.30
2018-05-17T04:39:02.166Z,15.60
2018-05-17T04:41:31.237Z,13.53
2018-05-17T04:43:59.573Z,15.60
2018-05-17T04:46:28.639Z,14.90
2018-05-17T04:48:56.976Z,14.80
2018-05-17T04:51:26.038Z,16.23
2018-05-17T04:53:54.371Z,15.50
2018-05-17T04:56:23.484Z,16.13
2018-05-17T04:58:51.782Z,17.17
2018-05-17T05:01:20.085Z,17.67
2018-05-17T05:03:48.432Z,18.47
2018-05-17T05:06:17.821Z,19.83
2018-05-17T05:08:46.125Z,20.00
2018-05-17T05:11:14.425Z,21.20
2018-05-17T05:13:43.914Z,20.63
2018-05-17T05:16:12.205Z,18.80
2018-05-17T05:18:40.509Z,19.10
2018-05-17T05:21:08.845Z,20.03
2018-05-17T05:23:37.168Z,20.13
2018-05-17T05:26:05.479Z,21.97
2018-05-17T05:28:33.790Z,22.00
2018-05-17T05:31:02.886Z,21.50
2018-05-17T05:33:31.989Z,20.03
2018-05-17T05:36:01.046Z,21.00
2018-05-17T05:38:29.359Z,21.40
2018-05-17T05:40:57.778Z,22.77
2018-05-17T05:43:26.341Z,20.27
2018-05-17T05:45:54.660Z,19.03
2018-05-17T05:48:22.961Z,22.07
2018-05-17T05:50:51.288Z,20.60
2018-05-17T05:53:19.582Z,21.87
2018-05-17T05:55:48.128Z,18.73
2018-05-17T05:58:16.418Z,19.07
2018-05-17T06:00:44.718Z,18.73
2018-05-17T06:03:13.819Z,17.80
2018-05-17T06:05:42.140Z,18.43
2018-05-17T06:08:10.472Z,16.50
2018-05-17T06:10:38.773Z,16.87
2018-05-17T06:13:07.074Z,19.57
2018-05-17T06:15:35.400Z,16.90
2018-05-17T06:18:03.698Z,17.03
2018-05-17T06:20:32.029Z,16.33
2018-05-17T06:23:00.320Z,16.07
2018-05-17T06:25:28.660Z,16.53
2018-05-17T06:27:56.944Z,16.70
2018-05-17T06:30:25.281Z,15.60
2018-05-17T06:32:53.585Z,14.57
2018-05-17T06:35:21.923Z,13.07
2018-05-17T06:37:50.249Z,12.43
2018-05-17T06:40:18.577Z,14.50
2018-05-17T06:42:47.643Z,12.70
2018-05-17T06:45:16.161Z,12.50
2018-05-17T06:47:44.453Z,12.10
2018-05-17T06:50:12.740Z,11.70
2018-05-17T06:52:41.078Z,11.13
2018-05-17T06:55:09.369Z,10.43
2018-05-17T06:57:37.906Z,11.40
2018-05-17T07:00:06.204Z,9.83
2018-05-17T07:02:34.495Z,10.40
2018-05-17T07:05:03.122Z,10.00
2018-05-17T07:07:31.421Z,10.50
2018-05-17T07:09:59.722Z,10.70
2018-05-17T07:12:28.053Z,11.60
2018-05-17T07:14:56.337Z,10.53
2018-05-17T07:17:24.667Z,10.83
2018-05-17T07:19:53.434Z,9.97
2018-05-17T07:22:21.725Z,10.40
2018-05-17T07:24:50.021Z,10.43
2018-05-17T07:27:19.159Z,10.43
2018-05-17T07:29:48.255Z,11.03
2018-05-17T07:32:16.511Z,9.90
2018-05-17T07:34:44.843Z,9.90
2018-05-17T07:37:13.135Z,9.30
2018-05-17T07:39:41.486Z,9.03
2018-05-17T07:42:09.815Z,10.03
2018-05-17T07:44:38.129Z,10.00
2018-05-17T07:47:06.472Z,7.50
2018-05-17T07:49:35.530Z,8.27
2018-05-17T07:52:03.868Z,8.37
2018-05-17T07:54:32.932Z,7.17
2018-05-17T07:57:01.244Z,7.60
2018-05-17T07:59:29.538Z,6.57
2018-05-17T08:01:57.816Z,6.97
2018-05-17T08:04:26.131Z,7.20
2018-05-17T08:06:55.182Z,6.90
2018-05-17T08:09:23.516Z,6.90
2018-05-17T08:11:52.588Z,6.27
2018-05-17T08:14:20.905Z,7.60
2018-05-17T08:16:49.198Z,7.40
2018-05-17T08:19:17.518Z,6.03
2018-05-17T08:21:46.583Z,6.60
2018-05-17T08:24:14.874Z,6.30
2018-05-17T08:26:43.197Z,6.60
2018-05-17T08:29:12.245Z,6.30
2018-05-17T08:31:40.591Z,5.70
2018-05-17T08:34:09.990Z,6.10
2018-05-17T08:36:38.453Z,5.87
2018-05-17T08:39:06.578Z,6.83
2018-05-17T08:41:34.894Z,6.07
2018-05-17T08:44:03.180Z,5.93
2018-05-17T08:46:32.256Z,6.03
2018-05-17T08:49:00.577Z,5.77
2018-05-17T08:51:28.898Z,6.33
2018-05-17T08:53:57.176Z,5.20
2018-05-17T08:56:25.458Z,5.20
2018-05-17T08:58:53.780Z,5.63
2018-05-17T09:01:22.056Z,5.30
2018-05-17T09:03:50.361Z,6.13
2018-05-17T09:06:18.763Z,5.57
2018-05-17T09:08:47.728Z,5.57
2018-05-17T09:11:16.050Z,5.53
2018-05-17T09:13:44.437Z,5.30
2018-05-17T09:16:12.677Z,4.37
2018-05-17T09:18:40.994Z,4.57
2018-05-17T09:21:09.290Z,4.37
2018-05-17T09:23:37.618Z,4.10
2018-05-17T09:26:06.210Z,4.20
2018-05-17T09:28:34.484Z,4.37
2018-05-17T09:31:02.806Z,3.83
2018-05-17T09:33:31.109Z,5.00
2018-05-17T09:36:00.160Z,5.17
2018-05-17T09:38:28.478Z,4.23
2018-05-17T09:40:56.798Z,4.30
2018-05-17T09:43:25.090Z,3.90
2018-05-17T09:45:53.428Z,4.10
2018-05-17T09:48:21.714Z,3.50
2018-05-17T09:50:50.031Z,3.67
2018-05-17T09:53:18.360Z,3.40
2018-05-17T09:55:46.645Z,3.30
2018-05-17T09:58:14.969Z,4.50
2018-05-17T10:00:49.693Z,3.27
2018-05-17T10:03:18.022Z,3.27
2018-05-17T10:05:46.411Z,3.90
2018-05-17T10:08:14.694Z,3.43
2018-05-17T10:10:43.007Z,4.23
2018-05-17T10:13:12.061Z,4.37
2018-05-17T10:15:40.684Z,3.43
2018-05-17T10:18:08.978Z,2.77
2018-05-17T10:20:37.265Z,3.07
2018-05-17T10:23:05.594Z,3.73
2018-05-17T10:25:34.677Z,3.60
2018-05-17T10:28:02.957Z,3.23
2018-05-17T10:30:31.246Z,4.00
2018-05-17T10:32:59.565Z,3.67
2018-05-17T10:35:28.617Z,3.97
2018-05-17T10:37:57.665Z,2.70
2018-05-17T10:40:26.955Z,2.93
2018-05-17T10:42:55.246Z,3.23
2018-05-17T10:45:23.537Z,3.20
2018-05-17T10:47:51.861Z,4.00
2018-05-17T10:50:20.915Z,2.97
2018-05-17T10:52:49.234Z,4.33
2018-05-17T10:55:17.614Z,3.40
2018-05-17T10:57:45.924Z,3.00
2018-05-17T11:00:14.981Z,2.73
2018-05-17T11:02:43.293Z,3.20
2018-05-17T11:05:11.605Z,3.53
2018-05-17T11:07:39.895Z,3.90
2018-05-17T11:10:08.214Z,3.13
2018-05-17T11:12:36.502Z,3.00
2018-05-17T11:15:05.051Z,3.30
2018-05-17T11:17:33.337Z,3.03
2018-05-17T11:20:01.621Z,3.07
2018-05-17T11:22:29.945Z,2.83
2018-05-17T11:24:59.029Z,3.10
2018-05-17T11:27:27.327Z,2.87
2018-05-17T11:29:56.004Z,3.40
2018-05-17T11:32:24.297Z,3.40
2018-05-17T11:34:52.576Z,3.60
2018-05-17T11:37:20.893Z,3.43
2018-05-17T11:39:49.996Z,3.70
2018-05-17T11:42:18.292Z,4.00
2018-05-17T11:44:46.578Z,4.07
2018-05-17T11:47:14.897Z,3.67
2018-05-17T11:49:43.444Z,4.23
2018-05-17T11:52:11.728Z,4.57
2018-05-17T11:54:40.015Z,3.43
2018-05-17T11:57:08.335Z,3.57
2018-05-17T11:59:36.691Z,3.57
2018-05-17T12:02:05.005Z,3.93
2018-05-17T12:04:33.295Z,4.03
2018-05-17T12:07:01.582Z,3.20
2018-05-17T12:09:30.278Z,4.10
2018-05-17T12:11:58.562Z,3.77
2018-05-17T12:14:26.844Z,3.53
2018-05-17T12:16:55.551Z,3.63
2018-05-17T12:19:25.422Z,3.87
2018-05-17T12:21:53.713Z,3.50
2018-05-17T12:24:22.029Z,4.00
2018-05-17T12:26:50.318Z,3.20
2018-05-17T12:29:18.601Z,3.17
2018-05-17T12:31:46.991Z,3.70
2018-05-17T12:34:15.231Z,3.27
2018-05-17T12:36:43.552Z,3.70
2018-05-17T12:39:11.842Z,4.60
2018-05-17T12:41:40.305Z,3.40
2018-05-17T12:44:09.357Z,3.53
2018-05-17T12:46:37.658Z,5.00
2018-05-17T12:49:05.985Z,4.13
2018-05-17T12:51:34.269Z,2.97
2018-05-17T12:54:02.553Z,3.60
2018-05-17T12:56:30.882Z,3.30
2018-05-17T12:58:59.167Z,3.80
2018-05-17T13:01:27.448Z,4.30
2018-05-17T13:03:56.541Z,4.07
2018-05-17T13:06:24.834Z,4.23
2018-05-17T13:08:53.889Z,4.00
2018-05-17T13:11:22.213Z,3.60
2018-05-17T13:13:50.944Z,3.50
2018-05-17T13:16:19.982Z,3.40
2018-05-17T13:18:48.338Z,3.73
2018-05-17T13:21:16.722Z,4.43
2018-05-17T13:23:45.774Z,3.97
2018-05-17T13:26:14.098Z,4.10
2018-05-17T13:28:42.399Z,4.13
2018-05-17T13:31:10.720Z,3.90
2018-05-17T13:33:39.043Z,3.83
2018-05-17T13:36:07.393Z,4.57
2018-05-17T13:38:36.492Z,3.33
2018-05-17T13:41:05.562Z,4.57
2018-05-17T13:43:33.850Z,3.90
2018-05-17T13:46:02.177Z,3.70
2018-05-17T13:48:31.420Z,3.80
2018-05-17T13:50:59.696Z,4.20
2018-05-17T13:53:27.989Z,3.40
2018-05-17T13:55:56.532Z,3.67
2018-05-17T13:58:24.821Z,3.47
2018-05-17T14:00:53.107Z,3.43
2018-05-17T14:03:21.421Z,3.57
2018-05-17T14:05:50.474Z,3.40
2018-05-17T14:08:18.782Z,3.33
2018-05-17T14:10:47.504Z,4.27
2018-05-17T14:13:15.788Z,4.07
2018-05-17T14:15:44.074Z,5.17
2018-05-17T14:18:12.534Z,3.10
2018-05-17T14:20:40.808Z,3.73
2018-05-17T14:23:09.180Z,3.90
2018-05-17T14:25:37.437Z,4.77
2018-05-17T14:28:05.715Z,4.50
2018-05-17T14:30:34.042Z,3.93
2018-05-17T14:33:03.098Z,4.80
2018-05-17T14:35:31.701Z,3.80
2018-05-17T14:37:59.988Z,4.90
2018-05-17T14:40:29.046Z,4.73
2018-05-17T14:42:58.172Z,5.73
2018-05-17T14:45:26.486Z,4.50
2018-05-17T14:47:54.806Z,4.57
2018-05-17T14:50:23.290Z,4.13
2018-05-17T14:52:51.564Z,4.30
2018-05-17T14:55:19.929Z,4.83
2018-05-17T14:57:48.224Z,3.43
2018-05-17T15:00:16.509Z,4.43
2018-05-17T15:02:45.092Z,5.10
2018-05-17T15:05:13.381Z,5.00
2018-05-17T15:07:42.055Z,3.57
2018-05-17T15:10:10.454Z,3.30
2018-05-17T15:12:39.513Z,3.10
2018-05-17T15:15:08.949Z,4.30
2018-05-17T15:17:37.483Z,4.83
2018-05-17T15:20:05.828Z,4.40
2018-05-17T15:22:34.327Z,3.80
2018-05-17T15:25:02.615Z,3.80
2018-05-17T15:27:30.941Z,4.50
2018-05-17T15:29:59.364Z,4.43
2018-05-17T15:32:27.594Z,3.20
2018-05-17T15:34:55.877Z,3.87
2018-05-17T15:37:24.162Z,4.33
2018-05-17T15:39:52.498Z,4.40
2018-05-17T15:42:20.787Z,3.40
2018-05-17T15:44:49.118Z,4.90
2018-05-17T15:47:17.839Z,3.70
2018-05-17T15:49:46.134Z,4.40
2018-05-17T15:52:14.430Z,4.20
2018-05-17T15:54:43.525Z,4.10
2018-05-17T15:57:11.817Z,3.93
2018-05-17T15:59:40.105Z,3.77
2018-05-17T16:02:08.461Z,4.10
2018-05-17T16:04:36.787Z,4.37
2018-05-17T16:07:05.078Z,4.13
2018-05-17T16:09:33.370Z,4.20
2018-05-17T16:12:01.862Z,4.10
2018-05-17T16:14:30.249Z,4.10
2018-05-17T16:16:58.557Z,4.00
2018-05-17T16:19:27.652Z,3.53
2018-05-17T16:21:55.970Z,4.90
2018-05-17T16:24:24.261Z,3.87
2018-05-17T16:26:52.624Z,3.00
2018-05-17T16:29:20.917Z,4.10
2018-05-17T16:31:51.211Z,4.10
2018-05-17T16:34:20.975Z,3.90
2018-05-17T16:36:50.068Z,3.93
2018-05-17T16:39:18.472Z,3.60
2018-05-17T16:41:46.814Z,3.67
2018-05-17T16:44:15.133Z,3.97
2018-05-17T16:46:43.465Z,4.40
2018-05-17T16:49:11.793Z,3.83
2018-05-17T16:51:40.085Z,4.90
2018-05-17T16:54:08.396Z,4.50
2018-05-17T16:56:37.578Z,4.30
2018-05-17T16:59:05.906Z,4.87
2018-05-17T17:01:34.396Z,4.50
2018-05-17T17:04:02.683Z,4.60
2018-05-17T17:06:30.981Z,3.93
2018-05-17T17:08:59.391Z,4.17
2018-05-17T17:11:27.742Z,4.47
2018-05-17T17:13:56.033Z,4.27
2018-05-17T17:16:24.370Z,3.93
2018-05-17T17:18:52.704Z,3.60
2018-05-17T17:21:21.037Z,3.80
2018-05-17T17:23:50.191Z,4.70
2018-05-17T17:26:18.778Z,5.03
2018-05-17T17:28:47.180Z,4.00
2018-05-17T17:31:15.566Z,3.87
2018-05-17T17:33:44.616Z,4.43
2018-05-17T17:36:13.052Z,4.70
2018-05-17T17:38:41.597Z,3.90
2018-05-17T17:41:09.950Z,3.57
2018-05-17T17:43:38.253Z,4.00
2018-05-17T17:46:06.597Z,4.33
2018-05-17T17:48:35.641Z,3.63
2018-05-17T17:51:04.011Z,4.40
2018-05-17T17:53:32.368Z,3.83
2018-05-17T17:56:00.742Z,5.03
2018-05-17T17:58:29.470Z,5.37
2018-05-17T18:00:57.722Z,5.27
2018-05-17T18:03:26.023Z,3.37
2018-05-17T18:05:54.341Z,3.50
2018-05-17T18:08:23.573Z,3.80
2018-05-17T18:10:51.911Z,4.00
2018-05-17T18:13:20.256Z,4.73
2018-05-17T18:15:48.581Z,4.07
2018-05-17T18:18:17.874Z,4.07
2018-05-17T18:20:46.417Z,4.87
2018-05-17T18:23:15.598Z,3.30
2018-05-17T18:25:44.479Z,5.00
2018-05-17T18:28:13.507Z,3.77
2018-05-17T18:30:41.792Z,4.50
2018-05-17T18:33:10.125Z,4.40
2018-05-17T18:35:39.497Z,3.83
2018-05-17T18:38:07.785Z,4.00
2018-05-17T18:40:36.197Z,3.40
2018-05-17T18:43:04.569Z,4.10
2018-05-17T18:45:32.830Z,4.70
2018-05-17T18:48:01.154Z,5.93
2018-05-17T18:50:30.988Z,3.73
2018-05-17T18:52:59.303Z,3.80
2018-05-17T18:55:28.366Z,3.70
2018-05-17T18:57:57.428Z,3.80
2018-05-17T19:00:25.837Z,4.10
2018-05-17T19:02:54.089Z,4.53
2018-05-17T19:05:23.182Z,4.40
2018-05-17T19:07:51.466Z,4.30
2018-05-17T19:10:19.760Z,4.00
2018-05-17T19:12:48.393Z,3.77
2018-05-17T19:15:16.714Z,3.73
2018-05-17T19:17:44.990Z,4.17
2018-05-17T19:20:13.324Z,4.97
2018-05-17T19:22:41.665Z,5.53
2018-05-17T19:25:09.960Z,4.30
2018-05-17T19:27:38.288Z,4.33
2018-05-17T19:30:06.590Z,3.27
2018-05-17T19:32:34.889Z,5.00
2018-05-17T19:35:03.986Z,3.63
2018-05-17T19:37:32.324Z,3.83
2018-05-17T19:40:00.609Z,4.40
2018-05-17T19:42:28.929Z,3.90
2018-05-17T19:44:57.207Z,3.80
2018-05-17T19:47:25.797Z,3.70
2018-05-17T19:49:54.704Z,3.80
2018-05-17T19:52:23.022Z,4.03
2018-05-17T19:54:51.353Z,4.70
2018-05-17T19:57:19.651Z,4.20
2018-05-17T19:59:48.018Z,4.40
2018-05-17T20:02:16.296Z,4.60
2018-05-17T20:04:44.615Z,3.40
2018-05-17T20:07:12.943Z,4.50
2018-05-17T20:09:41.228Z,5.30
2018-05-17T20:12:09.645Z,3.40
2018-05-17T20:14:39.485Z,5.30
2018-05-17T20:17:08.873Z,4.80
2018-05-17T20:19:37.160Z,4.40
2018-05-17T20:22:05.452Z,4.03
2018-05-17T20:24:33.850Z,3.30
2018-05-17T20:27:02.138Z,4.80
2018-05-17T20:29:30.433Z,2.70
2018-05-17T20:31:58.749Z,3.43
2018-05-17T20:34:27.805Z,3.33
2018-05-17T20:36:56.105Z,3.40
2018-05-17T20:39:24.433Z,4.43
2018-05-17T20:41:53.483Z,4.10
2018-05-17T20:44:21.774Z,3.63
2018-05-17T20:46:50.086Z,3.30
2018-05-17T20:49:18.364Z,4.60
2018-05-17T20:51:46.658Z,6.30
2018-05-17T20:54:14.985Z,3.27
2018-05-17T20:56:44.077Z,3.53
2018-05-17T20:59:12.358Z,3.73
2018-05-17T21:01:40.665Z,3.90
2018-05-17T21:04:09.759Z,3.33
2018-05-17T21:06:38.053Z,3.33
2018-05-17T21:09:07.114Z,3.17
2018-05-17T21:11:36.350Z,3.23
2018-05-17T21:14:04.759Z,4.13
2018-05-17T21:16:34.550Z,4.00
2018-05-17T21:19:02.869Z,4.40
2018-05-17T21:21:31.171Z,4.27
2018-05-17T21:24:00.244Z,3.10
2018-05-17T21:26:28.541Z,3.93
2018-05-17T21:28:56.834Z,5.57
2018-05-17T21:31:25.149Z,3.43
2018-05-17T21:33:54.477Z,3.60
2018-05-17T21:36:23.538Z,5.40
2018-05-17T21:38:51.834Z,3.50
2018-05-17T21:41:20.149Z,4.30
2018-05-17T21:43:48.435Z,3.53
2018-05-17T21:46:16.757Z,4.03
2018-05-17T21:48:45.309Z,5.10
2018-05-17T21:51:13.592Z,6.03
2018-05-17T21:53:41.881Z,5.20
2018-05-17T21:56:11.720Z,3.27
2018-05-17T21:58:40.010Z,4.30
2018-05-17T22:01:08.701Z,4.13
2018-05-17T22:03:37.006Z,3.83
2018-05-17T22:06:05.293Z,5.30
2018-05-17T22:08:34.485Z,7.03
2018-05-17T22:11:02.885Z,3.90
2018-05-17T22:13:32.693Z,5.90
2018-05-17T22:16:01.086Z,4.47
2018-05-17T22:18:29.419Z,4.93
2018-05-17T22:20:58.474Z,3.87
2018-05-17T22:23:26.798Z,4.47
2018-05-17T22:25:55.890Z,4.30
2018-05-17T22:28:24.213Z,4.60
2018-05-17T22:30:53.263Z,5.87
2018-05-17T22:33:21.776Z,7.97
2018-05-17T22:35:50.139Z,5.97
2018-05-17T22:38:18.374Z,6.80
2018-05-17T22:40:46.993Z,7.67
2018-05-17T22:43:15.286Z,8.73
2018-05-17T22:45:43.638Z,8.30
2018-05-17T22:48:12.129Z,9.13
2018-05-17T22:50:40.454Z,9.23
2018-05-17T22:53:08.749Z,10.43
2018-05-17T22:55:37.157Z,11.07
2018-05-17T23:01:06.214Z,9.53
2018-05-17T23:03:34.919Z,11.77
2018-05-17T23:06:03.257Z,10.57
2018-05-17T23:08:32.333Z,12.00
2018-05-17T23:11:00.661Z,10.20
2018-05-17T23:13:28.957Z,11.00
2018-05-17T23:15:57.248Z,10.93
2018-05-17T23:18:25.583Z,13.00
2018-05-17T23:20:53.876Z,11.80
2018-05-17T23:23:22.225Z,13.90
2018-05-17T23:25:50.523Z,12.97
2018-05-17T23:28:18.857Z,12.80
2018-05-17T23:30:47.245Z,14.53
2018-05-17T23:33:15.639Z,14.07
2018-05-17T23:35:44.029Z,14.73
2018-05-17T23:38:12.334Z,13.97
2018-05-17T23:43:41.109Z,16.43
2018-05-17T23:46:09.753Z,13.93
2018-05-17T23:48:38.054Z,14.40
2018-05-17T23:51:07.120Z,15.87
2018-05-17T23:53:35.444Z,15.67
2018-05-17T23:56:03.776Z,15.17
2018-05-17T23:58:32.086Z,15.60
